PDT,Max TemperatureF,Mean TemperatureF,Min TemperatureF,Max Dew PointF,MeanDew PointF,Min DewpointF,Max Humidity, Mean Humidity, Min Humidity, Max Sea Level PressureIn, Mean Sea Level PressureIn, Min Sea Level PressureIn, Max VisibilityMiles, Mean VisibilityMiles, Min VisibilityMiles, Max Wind SpeedMPH, Mean Wind SpeedMPH, Max Gust SpeedMPH,PrecipitationIn, CloudCover, Events, WindDirDegrees
2012-10-1,82,63,44,28,27,27,49,29,13,30.34,30.24,30.13,10,10,5,12,6,,0.00,0,,213
2012-10-2,71,58,46,37,31,28,53,40,23,30.14,30.12,30.07,10,10,10,13,6,,0.00,0,,141
2012-10-3,,,,,,,,,,,,,,,,,,,,,,
2012-10-4,60,50,39,19,16,10,42,27,14,30.25,30.21,30.16,10,10,10,13,4,18,0.00,0,,300
2012-10-5,60,44,28,18,14,10,55,32,14,30.30,30.25,30.19,10,10,10,12,5,,0.00,0,,167
2012-10-6,64,47,30,19,13,3,51,30,9,30.29,30.23,30.14,10,10,10,12,5,,0.00,0,,127
2012-10-7,69,51,33,14,12,10,41,23,11,30.20,30.11,30.01,10,10,10,13,5,,0.00,0,,117
2012-10-8,73,55,37,18,13,9,38,22,8,30.04,29.99,29.93,10,10,10,14,8,18,0.00,0,,161
2012-10-9,71,54,37,30,21,14,49,29,17,30.10,30.06,30.01,10,10,10,14,7,,0.00,0,,164
2012-10-10,73,56,39,32,28,21,65,38,14,30.06,29.99,29.90,10,10,10,13,7,,0.00,0,,140
2012-10-11,73,56,39,30,27,25,61,37,17,30.00,29.93,29.85,10,10,10,14,6,,0.00,0,,130
2012-10-12,71,56,41,46,31,18,87,49,13,30.09,29.94,29.87,10,10,10,18,6,24,0.02,2,Rain,222
2012-10-13,62,54,46,46,45,41,100,74,48,30.28,30.22,30.10,10,10,5,10,4,,0.05,5,Rain,233
2012-10-14,75,58,42,43,40,36,93,57,25,30.28,30.16,30.03,10,10,2,18,8,23,0.00,0,,156
2012-10-15,66,58,51,55,49,37,88,71,39,30.10,30.00,29.83,10,10,5,24,10,30,0.37,7,Rain,225
2012-10-16,60,50,37,54,38,25,94,63,31,30.22,30.00,29.76,10,10,5,28,12,37,0.30,3,Rain,269
2012-10-17,55,44,32,32,28,18,93,61,23,30.29,30.25,30.21,10,10,10,12,5,,0.00,0,,126
2012-10-18,69,52,35,30,24,12,70,41,13,30.29,30.18,30.02,10,10,3,14,8,24,0.00,0,,121
2012-10-19,66,58,50,50,37,28,94,52,32,30.04,29.92,29.81,10,10,10,18,8,26,0.00,6,Rain,209
2012-10-20,51,43,35,46,35,27,87,71,46,29.89,29.86,29.82,10,10,7,16,7,17,0.01,5,Rain,252
2012-10-21,50,40,30,32,26,19,93,64,32,29.90,29.84,29.74,10,10,10,10,3,,0.00,1,Thunderstorm,130
2012-10-22,46,39,32,36,30,21,93,72,56,29.72,29.61,29.51,10,10,5,26,8,36,0.04,4,Rain-Snow-Thunderstorm,158
2012-10-23,44,38,32,32,30,27,93,79,49,29.92,29.81,29.68,10,10,3,14,5,17,0.02,6,Snow,186
2012-10-24,44,38,32,34,31,27,100,84,57,30.13,29.96,29.88,10,7,0,15,5,20,0.07,6,Fog-Rain-Snow,141
2012-10-25,42,36,30,34,31,27,100,87,61,30.40,30.31,30.14,10,9,0,8,1,,0.00,5,Snow,118
2012-10-26,48,39,30,32,30,27,93,71,49,30.39,30.20,30.09,10,10,10,22,9,30,0.00,4,,124
2012-10-27,46,40,35,45,36,32,100,86,61,30.14,30.09,30.04,10,10,7,14,8,21,0.07,6,Rain,106
2012-10-28,57,52,46,52,48,45,94,81,67,30.05,30.02,29.99,10,10,7,18,10,25,0.05,7,Rain,168
2012-10-29,59,52,46,50,46,41,93,73,59,30.13,30.07,29.97,10,10,7,18,9,24,0.00,5,Rain,157
2012-10-30,66,56,46,45,38,30,93,51,30,30.10,30.01,29.93,10,10,10,15,7,20,0.00,2,,156
2012-10-31,64,56,48,41,29,21,76,34,20,29.92,29.86,29.77,10,10,10,26,9,40,0.00,2,Rain,181